Time;durP1;ratioP1;P1;durP2;ratioP2;P2;SDS_P1;SDS_P2;PMS_P1;PMS_P2;Temp;Humidity;BMP_temperature;BMP_pressure;BME280_temperature;BME280_humidity;BME280_pressure;Samples;Min_cycle;Max_cycle;Signal;HPM_P1;HPM_P2
2021/03/24 00:00:07;;;;;;;18.73;10.88;;;1.80;83.20;;;;;;5055463;28;20100;-80
2021/03/24 00:02:32;;;;;;;19.60;11.10;;;1.80;83.20;;;;;;5054988;28;20033;-80
2021/03/24 00:04:58;;;;;;;19.20;11.10;;;1.80;83.10;;;;;;5055496;28;20387;-79
2021/03/24 00:07:24;;;;;;;21.83;11.65;;;1.80;83.10;;;;;;5057130;28;20510;-80
2021/03/24 00:09:49;;;;;;;20.35;12.05;;;1.80;83.00;;;;;;5049325;28;20585;-80
2021/03/24 00:12:15;;;;;;;19.92;11.18;;;1.80;83.10;;;;;;5054959;28;20102;-81
2021/03/24 00:14:41;;;;;;;19.08;11.50;;;1.70;83.30;;;;;;5055191;28;20426;-80
2021/03/24 00:17:06;;;;;;;19.10;11.45;;;1.70;83.30;;;;;;5055612;28;20195;-80
2021/03/24 00:19:32;;;;;;;17.63;10.60;;;1.70;83.30;;;;;;5056208;28;20069;-80
2021/03/24 00:21:58;;;;;;;19.23;11.18;;;1.80;83.60;;;;;;5053595;28;20028;-80
2021/03/24 00:24:23;;;;;;;21.08;11.23;;;1.80;83.60;;;;;;5055285;28;20025;-80
2021/03/24 00:26:49;;;;;;;18.90;11.18;;;1.80;83.50;;;;;;5053466;28;20430;-80
2021/03/24 00:29:15;;;;;;;21.92;11.48;;;1.80;83.60;;;;;;5054968;28;20390;-80
2021/03/24 00:31:40;;;;;;;21.67;11.32;;;1.70;83.60;;;;;;5057876;28;20471;-79
2021/03/24 00:34:06;;;;;;;19.40;11.57;;;1.70;83.80;;;;;;5057842;28;20028;-80
2021/03/24 00:36:32;;;;;;;21.02;12.32;;;1.70;84.00;;;;;;5055980;28;20108;-80
2021/03/24 00:38:57;;;;;;;23.48;11.95;;;1.70;84.70;;;;;;5054605;28;20028;-78
2021/03/24 00:41:23;;;;;;;20.00;11.10;;;1.70;84.20;;;;;;5055493;28;20025;-80
2021/03/24 00:43:49;;;;;;;20.10;11.25;;;1.70;84.30;;;;;;5056065;28;20025;-80
2021/03/24 00:46:14;;;;;;;22.70;11.73;;;1.70;84.40;;;;;;5056572;28;20107;-81
2021/03/24 00:48:40;;;;;;;22.45;11.70;;;1.70;84.40;;;;;;5056667;28;20025;-80
2021/03/24 00:51:07;;;;;;;23.65;12.98;;;1.70;84.90;;;;;;5044596;28;20031;-80
2021/03/24 00:53:33;;;;;;;23.75;12.07;;;1.60;84.40;;;;;;5058524;28;20049;-80
2021/03/24 00:55:59;;;;;;;22.40;12.40;;;1.60;84.60;;;;;;5042954;28;20036;-79
2021/03/24 00:58:25;;;;;;;24.02;12.65;;;1.60;84.80;;;;;;5039605;28;20037;-80
2021/03/24 01:00:51;;;;;;;23.30;12.68;;;1.60;85.10;;;;;;5053382;28;20379;-80
2021/03/24 01:03:17;;;;;;;38.47;20.48;;;1.60;85.20;;;;;;5065276;28;20040;-74
2021/03/24 01:05:45;;;;;;;37.03;20.33;;;1.60;85.20;;;;;;5072274;28;20089;-80
2021/03/24 01:08:14;;;;;;;30.58;17.42;;;1.50;85.50;;;;;;5056593;28;20041;-81
2021/03/24 01:10:41;;;;;;;33.50;17.25;;;1.50;85.60;;;;;;5051765;28;20028;-80
2021/03/24 01:13:07;;;;;;;25.17;13.60;;;1.50;85.70;;;;;;5045160;28;20029;-81
2021/03/24 01:15:34;;;;;;;24.38;12.68;;;1.50;85.90;;;;;;5061578;28;20116;-75
2021/03/24 01:18:00;;;;;;;22.20;12.23;;;1.50;86.00;;;;;;5052665;28;20083;-80
2021/03/24 01:20:29;;;;;;;21.85;11.80;;;1.50;86.10;;;;;;5036129;28;20377;-81
2021/03/24 01:22:56;;;;;;;19.63;11.57;;;1.50;86.20;;;;;;5036583;28;20038;-77
2021/03/24 01:25:22;;;;;;;20.35;11.75;;;1.50;86.30;;;;;;5040109;28;20033;-79
2021/03/24 01:27:49;;;;;;;24.10;11.98;;;1.50;85.90;;;;;;5035751;28;20026;-80
2021/03/24 01:30:16;;;;;;;18.83;10.98;;;1.50;85.90;;;;;;5034154;28;20036;-80
2021/03/24 01:32:42;;;;;;;21.88;11.75;;;1.40;86.40;;;;;;5034519;28;20424;-80
2021/03/24 01:35:09;;;;;;;20.58;11.30;;;1.40;86.60;;;;;;5039318;28;20098;-80
2021/03/24 01:37:37;;;;;;;21.40;11.43;;;1.50;86.90;;;;;;5038366;28;20057;-80
2021/03/24 01:40:06;;;;;;;19.83;11.23;;;1.50;86.70;;;;;;5034171;28;20025;-79
2021/03/24 01:42:31;;;;;;;22.77;12.00;;;1.50;86.60;;;;;;5034408;28;20384;-80
2021/03/24 01:45:14;;;;;;;20.67;12.05;;;1.50;86.60;;;;;;5035615;28;20021;-80
2021/03/24 01:47:42;;;;;;;18.33;11.10;;;1.40;86.80;;;;;;5036051;28;20033;-80
2021/03/24 01:50:22;;;;;;;19.77;10.45;;;1.40;86.80;;;;;;5035492;28;20104;-81
2021/03/24 01:52:48;;;;;;;19.02;11.25;;;1.40;87.00;;;;;;5033573;28;20033;-80
2021/03/24 01:55:15;;;;;;;21.15;11.40;;;1.40;86.90;;;;;;5035910;28;20499;-80
2021/03/24 01:57:46;;;;;;;20.75;11.05;;;1.40;87.10;;;;;;5035798;28;20484;-79
2021/03/24 02:00:41;;;;;;;21.27;11.10;;;1.50;87.30;;;;;;5034801;28;20022;-80
2021/03/24 02:03:07;;;;;;;19.10;11.05;;;1.50;87.20;;;;;;5032697;28;20046;-80
2021/03/24 02:05:33;;;;;;;18.63;10.57;;;1.50;86.90;;;;;;5035568;28;20048;-80
2021/03/24 02:08:12;;;;;;;19.30;10.23;;;1.50;87.10;;;;;;5033312;28;20060;-80
2021/03/24 02:11:21;;;;;;;19.73;11.35;;;1.50;86.90;;;;;;5054074;28;20085;-80
2021/03/24 02:14:01;;;;;;;21.05;11.13;;;1.50;86.80;;;;;;5034736;28;20111;-75
2021/03/24 02:16:34;;;;;;;19.25;11.13;;;1.40;86.90;;;;;;5036567;28;20037;-79
2021/03/24 02:19:08;;;;;;;18.75;11.02;;;1.40;86.90;;;;;;5033621;28;20578;-78
2021/03/24 02:21:36;;;;;;;17.08;9.68;;;1.40;87.20;;;;;;5033042;28;20025;-79
2021/03/24 02:24:26;;;;;;;16.05;10.13;;;1.40;86.90;;;;;;5033201;28;20420;-79
2021/03/24 02:27:07;;;;;;;18.25;9.90;;;1.40;87.10;;;;;;5039832;28;20468;-79
2021/03/24 02:29:35;;;;;;;16.73;9.40;;;1.40;87.20;;;;;;5032901;28;20045;-80
2021/03/24 02:32:03;;;;;;;17.02;9.82;;;1.40;87.20;;;;;;5033911;28;20026;-77
2021/03/24 02:34:30;;;;;;;19.45;10.82;;;1.40;87.10;;;;;;5038226;28;20425;-79
2021/03/24 02:36:58;;;;;;;18.33;9.82;;;1.40;87.30;;;;;;5039972;28;20387;-79
2021/03/24 02:39:26;;;;;;;17.80;9.73;;;1.40;87.20;;;;;;5033298;28;20056;-80
2021/03/24 02:41:54;;;;;;;18.63;10.20;;;1.40;87.10;;;;;;5034423;28;20060;-79
2021/03/24 02:44:21;;;;;;;26.20;13.18;;;1.40;87.20;;;;;;5037464;28;20029;-79
2021/03/24 02:46:47;;;;;;;28.83;12.07;;;1.30;87.30;;;;;;5042679;28;20087;-79
2021/03/24 02:49:14;;;;;;;19.73;10.27;;;1.40;87.20;;;;;;5049698;28;20045;-79
2021/03/24 02:51:40;;;;;;;22.00;10.95;;;1.40;87.10;;;;;;5063253;28;20013;-78
2021/03/24 02:54:12;;;;;;;21.95;11.20;;;1.40;87.10;;;;;;5058849;28;20026;-76
2021/03/24 02:56:38;;;;;;;25.45;12.90;;;1.40;87.30;;;;;;5065260;28;20056;-78
2021/03/24 02:59:06;;;;;;;20.73;11.25;;;1.30;87.20;;;;;;5058105;28;20029;-79
2021/03/24 03:01:48;;;;;;;20.35;11.02;;;1.30;87.40;;;;;;5043616;28;20026;-80
2021/03/24 03:04:20;;;;;;;21.52;11.95;;;1.30;87.40;;;;;;5039396;28;20082;-79
2021/03/24 03:06:47;;;;;;;18.25;10.15;;;1.30;87.50;;;;;;5037214;28;20090;-80
2021/03/24 03:09:34;;;;;;;23.13;11.02;;;1.30;87.50;;;;;;5044907;28;20104;-80
2021/03/24 03:12:07;;;;;;;22.58;10.75;;;1.30;87.50;;;;;;5036395;28;20053;-78
2021/03/24 03:14:49;;;;;;;16.73;10.13;;;1.30;87.30;;;;;;5036086;28;20092;-79
2021/03/24 03:17:20;;;;;;;16.35;10.15;;;1.20;87.40;;;;;;5036916;28;20061;-79
2021/03/24 03:19:59;;;;;;;18.05;10.30;;;1.20;87.60;;;;;;5047405;28;20041;-79
2021/03/24 03:22:32;;;;;;;18.05;9.88;;;1.30;87.60;;;;;;5039098;28;20028;-80
2021/03/24 03:25:17;;;;;;;22.80;10.73;;;1.30;87.70;;;;;;5042143;28;20025;-79
2021/03/24 03:27:44;;;;;;;21.85;12.18;;;1.20;87.60;;;;;;5034607;28;20116;-81
2021/03/24 03:30:14;;;;;;;21.15;11.18;;;1.20;87.70;;;;;;5033190;28;20489;-79
2021/03/24 03:32:43;;;;;;;17.48;9.82;;;1.20;87.70;;;;;;5033509;28;20376;-80
2021/03/24 03:35:18;;;;;;;18.10;10.48;;;1.20;87.70;;;;;;5034266;28;20472;-80
2021/03/24 03:37:44;;;;;;;19.13;10.03;;;1.20;88.20;;;;;;5033304;28;20026;-79
2021/03/24 03:40:13;;;;;;;20.75;10.20;;;1.20;87.60;;;;;;5034296;28;20280;-79
2021/03/24 03:42:40;;;;;;;18.17;10.57;;;1.20;87.70;;;;;;5033872;28;20032;-79
2021/03/24 03:45:09;;;;;;;17.60;10.15;;;1.30;87.60;;;;;;5039116;28;20056;-80
2021/03/24 03:47:35;;;;;;;19.73;10.20;;;1.30;87.70;;;;;;5037444;28;20029;-80
2021/03/24 03:50:00;;;;;;;16.92;9.00;;;1.20;87.50;;;;;;5036529;28;20372;-80
2021/03/24 03:52:35;;;;;;;16.55;9.85;;;1.20;87.60;;;;;;5033790;28;20029;-79
2021/03/24 03:55:34;;;;;;;15.68;9.13;;;1.30;87.60;;;;;;5036580;28;20032;-80
2021/03/24 03:58:06;;;;;;;16.63;9.85;;;1.20;87.60;;;;;;5037338;28;20482;-80
2021/03/24 04:00:41;;;;;;;16.70;9.90;;;1.30;87.80;;;;;;5040793;28;20493;-79
2021/03/24 04:03:19;;;;;;;19.48;10.32;;;1.30;87.80;;;;;;5032862;28;20423;-79
2021/03/24 04:05:52;;;;;;;16.38;9.25;;;1.30;87.60;;;;;;5034689;28;20030;-78
2021/03/24 04:08:22;;;;;;;15.63;8.60;;;1.30;87.60;;;;;;5034769;28;20052;-79
2021/03/24 04:10:55;;;;;;;14.63;8.82;;;1.30;87.50;;;;;;5050919;28;20115;-79
2021/03/24 04:13:25;;;;;;;17.20;10.18;;;1.30;87.60;;;;;;5051609;28;20471;-79
2021/03/24 04:15:53;;;;;;;14.85;8.90;;;1.30;87.60;;;;;;5031595;28;20040;-79
2021/03/24 04:18:28;;;;;;;17.98;9.93;;;1.30;87.60;;;;;;5032663;28;20104;-75
2021/03/24 04:20:54;;;;;;;19.35;10.27;;;1.40;87.60;;;;;;5032616;28;20025;-76
2021/03/24 04:23:25;;;;;;;22.10;11.23;;;1.40;87.40;;;;;;5045257;28;20061;-79
2021/03/24 04:26:08;;;;;;;27.23;13.05;;;1.40;87.60;;;;;;5032046;28;20033;-81
2021/03/24 04:28:37;;;;;;;51.13;25.27;;;1.40;87.50;;;;;;5032888;28;20061;-79
2021/03/24 04:31:07;;;;;;;35.00;21.15;;;1.40;87.40;;;;;;5035402;28;20024;-79
2021/03/24 04:33:34;;;;;;;24.30;15.60;;;1.40;87.50;;;;;;5033945;28;20025;-80
2021/03/24 04:36:08;;;;;;;18.45;11.07;;;1.40;87.30;;;;;;5033249;28;20467;-80
2021/03/24 04:38:38;;;;;;;14.35;8.40;;;1.40;87.30;;;;;;5046392;28;20032;-79
2021/03/24 04:41:08;;;;;;;22.50;13.05;;;1.40;87.10;;;;;;5069904;28;20036;-77
2021/03/24 04:43:38;;;;;;;25.48;17.45;;;1.40;87.30;;;;;;5075466;28;20025;-79
2021/03/24 04:46:16;;;;;;;20.38;12.27;;;1.40;87.50;;;;;;5072058;28;20040;-77
2021/03/24 04:48:45;;;;;;;17.50;11.02;;;1.40;87.40;;;;;;5059046;28;20041;-79
2021/03/24 04:51:20;;;;;;;16.05;9.02;;;1.40;87.40;;;;;;5067760;28;20030;-78
2021/03/24 04:53:54;;;;;;;16.38;8.80;;;1.40;87.60;;;;;;5038703;28;20038;-78
2021/03/24 04:56:21;;;;;;;14.65;9.60;;;1.40;88.10;;;;;;5039379;28;20025;-78
2021/03/24 04:58:53;;;;;;;18.85;9.38;;;1.40;87.60;;;;;;5036433;28;20030;-78
2021/03/24 05:01:36;;;;;;;17.13;9.48;;;1.40;87.60;;;;;;5042506;28;20053;-79
2021/03/24 05:04:19;;;;;;;17.58;9.07;;;1.50;87.80;;;;;;5034332;28;20052;-77
2021/03/24 05:06:51;;;;;;;16.38;9.10;;;1.50;87.80;;;;;;5036405;28;20038;-78
2021/03/24 05:09:16;;;;;;;16.00;9.02;;;1.50;87.80;;;;;;5042358;28;20442;-78
2021/03/24 05:11:50;;;;;;;17.08;9.13;;;1.50;87.80;;;;;;5038916;28;20026;-78
2021/03/24 05:14:31;;;;;;;16.60;9.48;;;1.60;88.50;;;;;;5034655;28;20025;-79
2021/03/24 05:17:15;;;;;;;15.65;9.13;;;1.60;87.90;;;;;;5042447;28;20045;-78
2021/03/24 05:19:42;;;;;;;15.27;8.30;;;1.60;87.90;;;;;;5043197;28;20095;-79
2021/03/24 05:22:25;;;;;;;15.85;9.00;;;1.60;87.50;;;;;;5033867;28;20029;-79
2021/03/24 05:25:03;;;;;;;14.98;9.07;;;1.60;87.60;;;;;;5033940;28;20033;-79
2021/03/24 05:27:42;;;;;;;17.10;9.95;;;1.70;87.70;;;;;;5034297;28;20033;-79
2021/03/24 05:30:26;;;;;;;14.95;8.70;;;1.70;88.00;;;;;;5035749;28;20025;-79
2021/03/24 05:33:01;;;;;;;17.77;9.73;;;1.80;87.80;;;;;;5042138;28;20045;-78
2021/03/24 05:35:41;;;;;;;16.40;9.10;;;1.80;87.80;;;;;;5052878;28;20074;-78
2021/03/24 05:38:21;;;;;;;20.33;9.93;;;1.80;87.80;;;;;;5053686;28;20430;-77
2021/03/24 05:41:22;;;;;;;17.83;9.57;;;1.80;87.60;;;;;;5047390;28;20033;-78
2021/03/24 05:44:28;;;;;;;15.63;8.90;;;1.90;87.90;;;;;;5052998;28;20048;-78
2021/03/24 05:47:21;;;;;;;15.85;9.00;;;1.90;87.80;;;;;;5045758;28;20071;-75
2021/03/24 05:49:59;;;;;;;30.90;13.75;;;2.00;87.50;;;;;;5051791;28;20466;-79
2021/03/24 05:52:30;;;;;;;25.98;12.20;;;2.00;87.40;;;;;;5043526;28;20481;-77
2021/03/24 05:55:15;;;;;;;26.92;12.55;;;2.00;87.80;;;;;;5052830;28;20020;-78
2021/03/24 05:57:53;;;;;;;19.95;9.95;;;2.10;87.90;;;;;;5051497;28;20069;-77
2021/03/24 06:00:50;;;;;;;17.15;9.98;;;2.20;87.60;;;;;;5043252;28;20458;-78
2021/03/24 06:03:49;;;;;;;14.52;8.73;;;2.20;87.20;;;;;;5053266;28;20026;-78
2021/03/24 06:06:33;;;;;;;16.70;9.05;;;2.30;87.20;;;;;;5044775;28;20034;-78
2021/03/24 06:09:37;;;;;;;17.80;9.98;;;2.30;87.80;;;;;;5035604;28;20408;-78
2021/03/24 06:12:31;;;;;;;17.42;9.82;;;2.40;87.50;;;;;;5035449;28;20044;-79
2021/03/24 06:15:16;;;;;;;15.63;8.85;;;2.60;87.90;;;;;;5052246;28;20036;-79
2021/03/24 06:18:01;;;;;;;13.68;8.07;;;2.70;88.00;;;;;;5035259;28;20029;-79
2021/03/24 06:20:34;;;;;;;15.07;8.18;;;2.80;86.30;;;;;;5043015;28;20427;-78
2021/03/24 06:23:11;;;;;;;14.85;9.13;;;2.80;86.00;;;;;;5038968;28;20028;-80
2021/03/24 06:25:51;;;;;;;16.85;9.27;;;2.80;85.40;;;;;;5043514;28;20032;-80
2021/03/24 06:28:29;;;;;;;17.85;9.40;;;2.70;85.70;;;;;;5037705;28;20160;-80
2021/03/24 06:31:29;;;;;;;17.58;10.55;;;2.80;85.90;;;;;;5053012;28;20025;-75
2021/03/24 06:34:20;;;;;;;15.45;8.93;;;2.90;86.30;;;;;;5059691;28;20193;-73
2021/03/24 06:36:59;;;;;;;15.90;9.00;;;2.90;85.80;;;;;;5047262;28;20036;-76
2021/03/24 06:39:31;;;;;;;15.23;8.27;;;3.00;85.90;;;;;;5061574;28;20025;-72
2021/03/24 06:42:08;;;;;;;16.15;8.90;;;3.10;86.00;;;;;;5048852;28;20115;-80
2021/03/24 06:45:04;;;;;;;16.80;9.15;;;3.10;85.20;;;;;;5046115;28;20017;-82
2021/03/24 06:47:38;;;;;;;15.13;8.65;;;3.20;85.10;;;;;;5050977;28;20387;-77
2021/03/24 06:50:23;;;;;;;17.05;8.38;;;3.20;84.50;;;;;;5047839;28;20025;-78
2021/03/24 06:52:48;;;;;;;16.60;9.48;;;3.30;84.10;;;;;;5038473;28;20449;-80
2021/03/24 06:55:45;;;;;;;14.95;8.80;;;3.20;83.90;;;;;;5044025;28;20267;-80
2021/03/24 06:58:31;;;;;;;19.85;10.10;;;3.20;83.90;;;;;;5041320;28;20041;-79
2021/03/24 07:01:15;;;;;;;20.52;11.18;;;3.30;84.40;;;;;;5047538;28;20060;-79
2021/03/24 07:04:11;;;;;;;21.27;11.18;;;3.30;83.50;;;;;;5048293;28;20032;-79
2021/03/24 07:06:48;;;;;;;25.02;12.70;;;3.30;83.50;;;;;;5039169;28;20442;-77
2021/03/24 07:09:41;;;;;;;19.65;10.68;;;3.40;83.70;;;;;;5038739;28;20056;-79
2021/03/24 07:12:20;;;;;;;20.77;11.65;;;3.50;83.10;;;;;;5041345;28;20033;-80
2021/03/24 07:15:16;;;;;;;23.58;11.68;;;3.50;82.60;;;;;;5043106;28;20063;-80
2021/03/24 07:18:02;;;;;;;21.60;11.00;;;3.60;82.60;;;;;;5035504;28;20111;-79
2021/03/24 07:20:52;;;;;;;19.40;10.88;;;3.70;82.20;;;;;;5048653;28;20120;-81
2021/03/24 07:23:42;;;;;;;20.05;10.82;;;3.70;81.70;;;;;;5041324;28;20030;-80
2021/03/24 07:26:53;;;;;;;22.33;11.90;;;3.80;82.30;;;;;;5039611;28;20041;-79
2021/03/24 07:29:33;;;;;;;17.80;9.70;;;4.10;82.60;;;;;;5039477;28;20178;-80
2021/03/24 07:32:14;;;;;;;18.52;10.10;;;4.30;81.70;;;;;;5036369;28;20037;-80
2021/03/24 07:35:10;;;;;;;14.93;9.20;;;4.60;81.50;;;;;;5033464;28;20021;-81
2021/03/24 07:37:57;;;;;;;15.98;8.90;;;4.90;81.00;;;;;;5037374;28;20163;-80
2021/03/24 07:40:41;;;;;;;13.40;8.05;;;5.20;80.30;;;;;;5038824;28;20025;-79
2021/03/24 07:43:19;;;;;;;17.50;9.25;;;5.50;78.90;;;;;;5043110;28;20029;-81
2021/03/24 07:45:50;;;;;;;15.20;8.75;;;5.60;77.60;;;;;;5035445;28;20036;-80
2021/03/24 07:48:53;;;;;;;14.48;9.07;;;5.70;77.00;;;;;;5039075;28;20033;-80
2021/03/24 07:51:52;;;;;;;15.57;8.93;;;5.90;77.00;;;;;;5047930;28;20077;-82
2021/03/24 07:54:31;;;;;;;14.85;9.02;;;6.40;76.90;;;;;;5040088;28;20434;-81
2021/03/24 07:57:25;;;;;;;16.48;9.55;;;6.60;76.10;;;;;;5047726;28;20033;-81
2021/03/24 08:00:15;;;;;;;15.80;9.27;;;6.90;75.20;;;;;;5049308;28;20041;-78
2021/03/24 08:02:46;;;;;;;18.42;10.48;;;7.00;73.70;;;;;;5039471;28;20033;-88
2021/03/24 08:05:52;;;;;;;18.02;10.70;;;7.20;73.30;;;;;;5041364;28;20030;-78
2021/03/24 08:08:50;;;;;;;14.80;8.70;;;7.40;72.70;;;;;;5049464;28;20045;-77
2021/03/24 08:11:22;;;;;;;15.38;8.45;;;7.80;71.80;;;;;;5033438;28;20484;-76
2021/03/24 08:14:06;;;;;;;17.27;10.18;;;8.10;70.70;;;;;;5046298;28;20034;-75
2021/03/24 08:16:33;;;;;;;17.50;10.05;;;8.30;69.80;;;;;;5052715;28;20029;-76
2021/03/24 08:19:14;;;;;;;14.93;9.05;;;8.40;68.10;;;;;;5056228;28;20017;-77
2021/03/24 08:21:39;;;;;;;17.65;10.68;;;8.20;66.70;;;;;;5056500;28;20028;-76
2021/03/24 08:24:30;;;;;;;15.43;9.90;;;7.90;66.40;;;;;;5054848;28;20024;-78
2021/03/24 08:27:02;;;;;;;20.98;12.60;;;7.70;66.20;;;;;;5053985;28;20088;-77
2021/03/24 08:29:44;;;;;;;16.63;10.40;;;7.30;66.20;;;;;;5053885;28;20021;-75
2021/03/24 08:32:32;;;;;;;16.58;10.10;;;7.10;66.50;;;;;;5047311;28;20361;-68
2021/03/24 08:35:29;;;;;;;16.35;10.15;;;6.80;66.30;;;;;;5037846;28;20040;-69
2021/03/24 08:38:28;;;;;;;17.00;9.73;;;6.70;66.80;;;;;;5047584;28;20126;-69
2021/03/24 08:41:28;;;;;;;16.08;9.57;;;6.70;67.10;;;;;;5037362;28;20053;-74
2021/03/24 08:44:04;;;;;;;15.57;8.95;;;6.60;66.80;;;;;;5052191;28;20515;-75
2021/03/24 08:46:55;;;;;;;14.68;9.27;;;6.40;66.90;;;;;;5050039;28;20035;-76
2021/03/24 08:49:25;;;;;;;14.43;8.82;;;6.50;66.90;;;;;;5047109;28;20079;-72
2021/03/24 08:52:13;;;;;;;13.63;8.88;;;6.50;66.90;;;;;;5047680;28;20036;-69
2021/03/24 08:55:21;;;;;;;17.15;9.57;;;6.60;67.00;;;;;;5042893;28;20021;-69
2021/03/24 08:58:25;;;;;;;18.67;10.35;;;6.70;67.00;;;;;;5043598;28;20045;-70
2021/03/24 09:01:29;;;;;;;17.95;10.52;;;6.70;66.90;;;;;;5057114;28;20087;-69
2021/03/24 09:04:15;;;;;;;14.63;8.73;;;6.80;66.60;;;;;;5045795;28;20045;-69
2021/03/24 09:06:46;;;;;;;14.73;9.10;;;6.80;66.50;;;;;;5041234;28;20032;-70
2021/03/24 09:09:25;;;;;;;14.45;9.40;;;6.80;65.90;;;;;;5048257;28;20053;-69
2021/03/24 09:11:56;;;;;;;17.52;10.57;;;6.80;66.20;;;;;;5048385;28;20608;-69
2021/03/24 09:14:31;;;;;;;19.58;10.75;;;6.90;66.30;;;;;;5047859;28;20108;-70
2021/03/24 09:17:34;;;;;;;18.50;9.87;;;6.90;65.70;;;;;;5044029;28;20409;-69
2021/03/24 09:20:35;;;;;;;16.92;9.73;;;6.80;65.10;;;;;;5044125;28;20640;-69
2021/03/24 09:23:28;;;;;;;17.55;9.82;;;6.80;65.60;;;;;;5042199;28;20130;-80
2021/03/24 09:26:18;;;;;;;16.27;9.57;;;6.70;65.10;;;;;;5057285;28;20029;-82
2021/03/24 09:29:04;;;;;;;19.30;10.35;;;6.70;65.10;;;;;;5048030;28;20025;-77
2021/03/24 09:32:04;;;;;;;17.10;10.63;;;6.50;65.10;;;;;;5044194;28;20028;-71
2021/03/24 09:34:42;;;;;;;18.25;10.93;;;6.40;65.10;;;;;;5040846;28;20065;-71
2021/03/24 09:37:10;;;;;;;19.98;10.65;;;6.40;65.20;;;;;;5047544;28;20156;-78
2021/03/24 09:40:05;;;;;;;16.67;10.45;;;6.30;65.30;;;;;;5042939;28;20029;-77
2021/03/24 09:42:37;;;;;;;15.90;9.73;;;6.30;65.70;;;;;;5047132;28;20037;-77
2021/03/24 09:45:20;;;;;;;14.93;9.13;;;6.30;65.40;;;;;;5040248;28;20112;-72
2021/03/24 09:47:49;;;;;;;15.07;8.40;;;6.30;65.10;;;;;;5035511;28;20449;-73
2021/03/24 09:50:45;;;;;;;16.95;9.20;;;6.30;65.00;;;;;;5045701;28;20439;-71
2021/03/24 09:53:26;;;;;;;18.13;10.50;;;6.50;65.20;;;;;;5047330;28;20383;-76
2021/03/24 09:55:54;;;;;;;18.05;11.18;;;6.70;65.10;;;;;;5050955;28;20044;-75
2021/03/24 09:58:24;;;;;;;18.73;11.35;;;7.00;65.20;;;;;;5044441;28;20091;-74
2021/03/24 10:00:54;;;;;;;16.30;9.90;;;7.30;64.40;;;;;;5041153;28;20021;-75
2021/03/24 10:03:34;;;;;;;14.77;9.68;;;7.60;63.90;;;;;;5056592;28;20036;-76
2021/03/24 10:06:46;;;;;;;;;;;;;;;;;;;;;
2021/03/24 10:09:46;;;;;;;14.45;9.05;;;8.30;62.80;;;;;;5059317;28;20061;-74
2021/03/24 10:12:40;;;;;;;16.30;8.95;;;9.10;62.30;;;;;;5061078;28;20049;-74
2021/03/24 10:15:24;;;;;;;15.90;8.70;;;10.10;61.00;;;;;;5041661;28;20037;-75
2021/03/24 10:18:06;;;;;;;13.70;9.05;;;11.00;59.60;;;;;;5041467;28;20448;-71
2021/03/24 10:20:58;;;;;;;15.27;9.18;;;11.90;58.20;;;;;;5050557;28;20036;-72
2021/03/24 10:23:44;;;;;;;14.88;9.15;;;12.70;56.60;;;;;;5043193;28;20487;-73
2021/03/24 10:26:49;;;;;;;14.60;9.32;;;13.40;54.90;;;;;;5053492;28;20032;-72
2021/03/24 10:29:19;;;;;;;13.68;9.00;;;14.00;52.70;;;;;;5036108;28;20052;-73
2021/03/24 10:31:52;;;;;;;12.55;8.85;;;14.40;51.70;;;;;;5040072;28;20060;-72
2021/03/24 10:34:44;;;;;;;12.82;9.05;;;14.60;50.10;;;;;;5044132;28;20538;-71
2021/03/24 10:37:41;;;;;;;14.80;8.82;;;15.20;50.10;;;;;;5037169;28;20036;-71
2021/03/24 10:40:30;;;;;;;12.43;9.10;;;15.60;48.60;;;;;;5046815;28;20055;-72
2021/03/24 10:43:03;;;;;;;12.65;9.07;;;15.90;47.80;;;;;;5040337;28;20029;-70
2021/03/24 10:45:48;;;;;;;12.77;9.35;;;15.90;46.10;;;;;;5042358;28;20026;-72
2021/03/24 10:48:28;;;;;;;12.80;8.55;;;15.20;45.40;;;;;;5046140;28;20486;-71
2021/03/24 10:51:12;;;;;;;13.57;9.25;;;14.50;45.80;;;;;;5035900;28;20025;-71
2021/03/24 10:53:40;;;;;;;14.00;9.25;;;13.90;45.80;;;;;;5037556;28;20029;-71
2021/03/24 10:56:31;;;;;;;12.77;9.30;;;13.10;46.10;;;;;;5042261;28;20032;-70
2021/03/24 10:59:34;;;;;;;13.48;9.40;;;12.40;46.30;;;;;;5035731;28;20021;-70
2021/03/24 11:02:33;;;;;;;15.45;9.30;;;11.90;47.10;;;;;;5051731;28;20041;-70
2021/03/24 11:05:13;;;;;;;13.60;9.10;;;11.90;48.70;;;;;;5040512;28;20028;-70
2021/03/24 11:08:00;;;;;;;13.68;8.75;;;12.00;48.60;;;;;;5039663;28;20068;-74
2021/03/24 11:10:47;;;;;;;11.57;8.20;;;11.80;48.50;;;;;;5044982;28;20036;-71
2021/03/24 11:13:28;;;;;;;16.67;9.70;;;11.40;48.40;;;;;;5041408;28;20029;-72
2021/03/24 11:15:56;;;;;;;14.38;9.43;;;11.00;49.00;;;;;;5040256;28;20491;-68
2021/03/24 11:18:30;;;;;;;18.42;10.95;;;11.00;49.70;;;;;;5044654;28;20518;-72
2021/03/24 11:21:17;;;;;;;16.38;10.80;;;10.80;50.10;;;;;;5040600;28;20037;-76
2021/03/24 11:23:49;;;;;;;18.88;11.40;;;10.50;49.20;;;;;;5052904;28;20100;-73
2021/03/24 11:26:30;;;;;;;18.95;11.70;;;10.20;49.40;;;;;;5045915;28;20033;-74
2021/03/24 11:28:59;;;;;;;16.35;9.85;;;10.10;50.50;;;;;;5035835;28;20021;-74
2021/03/24 11:32:12;;;;;;;13.43;8.85;;;10.10;50.70;;;;;;5047557;28;20028;-71
2021/03/24 11:35:01;;;;;;;13.30;9.10;;;9.90;50.70;;;;;;5028619;28;20041;-71
2021/03/24 11:37:45;;;;;;;18.23;11.82;;;9.70;50.90;;;;;;5042177;28;20044;-70
2021/03/24 11:40:23;;;;;;;19.85;12.45;;;9.40;51.10;;;;;;5042623;28;20060;-69
2021/03/24 11:43:19;;;;;;;19.85;12.65;;;9.10;51.60;;;;;;5038505;28;20471;-71
2021/03/24 11:45:46;;;;;;;17.65;11.07;;;9.10;52.20;;;;;;5050950;28;20027;-72
2021/03/24 11:48:29;;;;;;;23.95;12.93;;;9.20;52.50;;;;;;5056873;28;20029;-72
2021/03/24 11:51:25;;;;;;;16.73;11.00;;;9.10;52.50;;;;;;5047157;28;20025;-76
2021/03/24 11:54:02;;;;;;;18.40;11.63;;;9.00;52.50;;;;;;5046378;28;20109;-74
2021/03/24 11:56:50;;;;;;;19.05;11.93;;;8.70;52.70;;;;;;5049582;28;20495;-74
2021/03/24 11:59:33;;;;;;;20.95;11.95;;;8.50;53.10;;;;;;5040934;28;20041;-75
2021/03/24 12:02:05;;;;;;;18.58;11.45;;;8.30;53.80;;;;;;5038554;28;20388;-75
2021/03/24 12:05:22;;;;;;;22.27;12.35;;;8.10;54.00;;;;;;5037238;28;20037;-74
2021/03/24 12:08:00;;;;;;;26.13;14.73;;;8.00;54.40;;;;;;5036987;28;20084;-74
2021/03/24 12:10:37;;;;;;;29.05;15.32;;;7.90;54.50;;;;;;5041477;28;20034;-74
2021/03/24 12:13:20;;;;;;;22.65;13.98;;;7.80;54.60;;;;;;5043173;28;20057;-78
2021/03/24 12:16:00;;;;;;;20.20;13.25;;;7.80;54.90;;;;;;5041437;28;20035;-77
2021/03/24 12:18:25;;;;;;;19.73;11.93;;;7.90;55.30;;;;;;5042828;28;20025;-80
2021/03/24 12:20:53;;;;;;;19.08;11.43;;;7.90;55.30;;;;;;5041117;28;20029;-86
2021/03/24 12:23:22;;;;;;;19.48;12.32;;;7.80;55.50;;;;;;5047606;28;20029;-83
2021/03/24 12:25:52;;;;;;;18.23;10.90;;;7.60;55.70;;;;;;5044930;28;20482;-82
2021/03/24 12:28:36;;;;;;;19.30;11.85;;;7.50;56.10;;;;;;5047660;28;20025;-78
2021/03/24 12:31:08;;;;;;;17.40;10.85;;;7.40;56.40;;;;;;5038464;28;20026;-77
2021/03/24 12:36:29;;;;;;;17.90;10.73;;;7.20;56.60;;;;;;5040628;28;20069;-77
2021/03/24 12:38:59;;;;;;;16.17;10.52;;;7.10;56.90;;;;;;5044349;28;20387;-77
2021/03/24 12:41:45;;;;;;;18.58;10.95;;;7.10;57.20;;;;;;5048311;28;20029;-78
2021/03/24 12:44:26;;;;;;;15.48;9.95;;;7.10;57.50;;;;;;5045897;28;20041;-69
2021/03/24 12:47:03;;;;;;;16.73;11.10;;;7.20;57.80;;;;;;5043884;28;20091;-72
2021/03/24 12:49:37;;;;;;;17.45;9.93;;;7.20;57.10;;;;;;5046450;28;20454;-71
2021/03/24 12:52:28;;;;;;;12.93;8.75;;;7.20;57.20;;;;;;5037804;28;20146;-71
2021/03/24 12:54:54;;;;;;;14.50;9.23;;;7.20;56.80;;;;;;5047411;28;20029;-73
2021/03/24 12:57:36;;;;;;;12.90;8.68;;;7.30;56.80;;;;;;5049514;28;20033;-71
2021/03/24 13:00:40;;;;;;;12.18;8.07;;;7.30;57.00;;;;;;5051444;28;20059;-72
2021/03/24 13:03:32;;;;;;;14.27;8.55;;;7.40;57.00;;;;;;5048565;28;20029;-71
2021/03/24 13:06:32;;;;;;;16.00;10.35;;;7.60;57.00;;;;;;5049691;28;20036;-75
2021/03/24 13:09:05;;;;;;;18.13;11.25;;;7.70;56.90;;;;;;5040643;28;20098;-73
2021/03/24 13:11:49;;;;;;;20.05;12.73;;;7.80;56.90;;;;;;5046582;28;20395;-73
2021/03/24 13:14:40;;;;;;;19.77;11.82;;;7.80;57.00;;;;;;5024433;28;20057;-73
2021/03/24 13:17:49;;;;;;;22.40;12.18;;;7.90;57.10;;;;;;5052692;28;20048;-75
2021/03/24 13:20:26;;;;;;;26.92;12.75;;;7.80;56.80;;;;;;5057254;28;20086;-76
2021/03/24 13:23:01;;;;;;;20.95;11.50;;;7.70;56.70;;;;;;5048527;28;20491;-76
2021/03/24 13:25:47;;;;;;;15.88;7.93;;;7.60;56.80;;;;;;5042588;28;20025;-73
2021/03/24 13:28:17;;;;;;;13.02;7.60;;;7.40;56.50;;;;;;5050329;28;20106;-77
2021/03/24 13:31:02;;;;;;;10.73;6.60;;;7.40;56.50;;;;;;5040184;28;20087;-76
2021/03/24 13:34:14;;;;;;;12.70;6.80;;;7.30;56.60;;;;;;5036389;28;20061;-76
2021/03/24 13:36:51;;;;;;;10.23;6.30;;;7.20;56.80;;;;;;5051299;28;20072;-74
2021/03/24 13:40:05;;;;;;;10.18;5.78;;;7.20;56.90;;;;;;5046663;28;20041;-74
2021/03/24 13:42:40;;;;;;;11.82;6.68;;;7.10;56.80;;;;;;5046999;28;20422;-73